Time;durP1;ratioP1;P1;durP2;ratioP2;P2;SDS_P1;SDS_P2;PMS_P1;PMS_P2;Temp;Humidity;BMP_temperature;BMP_pressure;BME280_temperature;BME280_humidity;BME280_pressure;Samples;Min_cycle;Max_cycle;Signal;HPM_P1;HPM_P2
2021/03/24 00:01:37;;;;;;;21.80;12.10;;;0.10;99.90;;;;;;4963965;28;20449;-88
2021/03/24 00:04:07;;;;;;;19.57;12.10;;;0.00;99.90;;;;;;4962061;28;20443;-89
2021/03/24 00:06:33;;;;;;;23.80;10.97;;;0.10;99.90;;;;;;4961478;28;20803;-88
2021/03/24 00:09:07;;;;;;;19.33;11.90;;;0.50;99.90;;;;;;4960766;28;20474;-89
2021/03/24 00:11:36;;;;;;;19.53;11.40;;;0.60;99.90;;;;;;4962616;28;20461;-90
2021/03/24 00:14:06;;;;;;;21.13;12.63;;;0.00;99.90;;;;;;4957826;28;20443;-88
2021/03/24 00:16:32;;;;;;;20.83;13.03;;;0.00;99.90;;;;;;4960830;28;20497;-88
2021/03/24 00:19:02;;;;;;;19.77;11.30;;;0.00;99.90;;;;;;4959831;28;20441;-89
2021/03/24 00:21:31;;;;;;;20.07;12.47;;;0.50;99.90;;;;;;4955603;28;20459;-88
2021/03/24 00:24:01;;;;;;;19.40;12.00;;;;;;;;;;4953473;28;20488;-89
2021/03/24 00:26:30;;;;;;;22.23;12.00;;;0.00;99.90;;;;;;4946275;28;20876;-89
2021/03/24 00:28:56;;;;;;;20.73;13.00;;;-0.10;99.90;;;;;;4981639;28;20459;-87
2021/03/24 00:31:26;;;;;;;21.47;12.40;;;-0.10;99.90;;;;;;5023809;28;20491;-88
2021/03/24 00:33:53;;;;;;;24.50;12.60;;;;;;;;;;4968029;28;20470;-88
2021/03/24 00:36:20;;;;;;;19.67;11.47;;;;;;;;;;4934185;28;20448;-88
2021/03/24 00:38:49;;;;;;;18.60;10.90;;;-0.20;99.90;;;;;;4971532;28;20445;-89
2021/03/24 00:41:16;;;;;;;19.47;11.70;;;;;;;;;;4988424;28;20936;-87
2021/03/24 00:43:43;;;;;;;20.30;11.90;;;;;;;;;;4968545;28;20492;-89
2021/03/24 00:46:09;;;;;;;21.60;12.90;;;-0.20;99.90;;;;;;4970500;28;20452;-89
2021/03/24 00:48:36;;;;;;;18.57;11.20;;;-0.30;99.90;;;;;;4900262;29;20512;-89
2021/03/24 00:51:04;;;;;;;23.47;11.97;;;-0.20;99.90;;;;;;4934221;29;20459;-89
2021/03/24 00:53:31;;;;;;;24.10;11.50;;;-0.10;99.90;;;;;;4934150;29;20463;-89
2021/03/24 00:55:57;;;;;;;22.10;12.20;;;-0.70;99.90;;;;;;4932200;29;20452;-90
2021/03/24 00:58:23;;;;;;;17.43;11.43;;;-0.80;99.90;;;;;;4930573;29;20818;-90
2021/03/24 01:00:51;;;;;;;17.53;11.63;;;-0.30;99.90;;;;;;4933989;28;20564;-88
2021/03/24 01:03:18;;;;;;;18.20;11.10;;;-0.30;99.90;;;;;;4934321;29;20495;-89
2021/03/24 01:05:47;;;;;;;33.70;11.63;;;-0.40;99.90;;;;;;4934201;28;20440;-89
2021/03/24 01:08:17;;;;;;;17.63;10.80;;;-0.30;99.90;;;;;;4933924;29;20479;-90
2021/03/24 01:10:44;;;;;;;23.30;11.90;;;-0.30;99.90;;;;;;4934413;29;20530;-92
2021/03/24 01:13:12;;;;;;;19.33;10.53;;;-0.40;99.90;;;;;;4932022;28;20946;-89
2021/03/24 01:15:39;;;;;;;17.70;11.70;;;-0.40;99.90;;;;;;4933939;29;20448;-89
2021/03/24 01:18:05;;;;;;;16.87;10.93;;;-0.40;99.90;;;;;;4934176;29;20819;-89
2021/03/24 01:20:39;;;;;;;18.53;10.73;;;-0.40;99.90;;;;;;4958562;28;20478;-89
2021/03/24 01:23:06;;;;;;;19.83;11.27;;;-0.40;99.90;;;;;;4969847;28;20486;-89
2021/03/24 01:25:33;;;;;;;18.17;10.37;;;-0.40;99.90;;;;;;4972493;28;20508;-89
2021/03/24 01:28:00;;;;;;;19.43;12.03;;;-0.40;99.90;;;;;;4968307;28;20442;-90
2021/03/24 01:30:29;;;;;;;16.13;10.53;;;-0.40;99.90;;;;;;4972340;28;20540;-89
2021/03/24 01:32:55;;;;;;;17.43;10.93;;;-0.40;99.90;;;;;;4968337;28;20455;-88
2021/03/24 01:35:22;;;;;;;18.23;10.17;;;-0.50;99.90;;;;;;4969394;28;20458;-89
2021/03/24 01:37:49;;;;;;;19.73;11.03;;;-0.50;99.90;;;;;;4972227;28;20925;-89
2021/03/24 01:40:25;;;;;;;20.37;11.60;;;-0.50;99.90;;;;;;4972370;28;20457;-90
2021/03/24 01:42:52;;;;;;;18.57;11.20;;;-0.40;99.90;;;;;;4971062;28;20551;-89
2021/03/24 01:45:54;;;;;;;19.07;11.20;;;-0.50;99.90;;;;;;4968002;28;20582;-90
2021/03/24 01:48:20;;;;;;;16.03;10.60;;;-0.50;99.90;;;;;;4988466;28;20457;-89
2021/03/24 01:50:47;;;;;;;19.40;11.20;;;-0.50;99.90;;;;;;4969245;28;20450;-89
2021/03/24 01:53:13;;;;;;;14.67;9.97;;;-0.50;99.90;;;;;;4966519;28;20451;-89
2021/03/24 01:55:41;;;;;;;16.10;10.70;;;-0.50;99.90;;;;;;4966740;28;20454;-90
2021/03/24 01:58:07;;;;;;;20.10;11.00;;;-0.60;99.90;;;;;;4971048;28;21015;-89
2021/03/24 02:00:36;;;;;;;15.33;9.53;;;-0.40;99.90;;;;;;4938456;28;20447;-88
2021/03/24 02:03:04;;;;;;;19.70;11.43;;;-0.60;99.90;;;;;;4972170;28;20494;-89
2021/03/24 02:05:31;;;;;;;17.20;10.33;;;-0.10;99.90;;;;;;4973341;28;20457;-91
2021/03/24 02:08:05;;;;;;;17.73;11.30;;;-0.60;99.90;;;;;;4971340;28;20442;-88
2021/03/24 02:10:37;;;;;;;18.87;10.63;;;-0.60;99.90;;;;;;4974241;28;20452;-89
2021/03/24 02:13:10;;;;;;;16.53;11.10;;;-0.60;99.90;;;;;;4973107;28;20449;-89
2021/03/24 02:15:40;;;;;;;16.93;10.37;;;-0.60;99.90;;;;;;4971870;28;20942;-89
2021/03/24 02:18:08;;;;;;;21.97;11.27;;;-0.50;99.90;;;;;;4969681;28;20453;-90
2021/03/24 02:20:37;;;;;;;17.07;10.37;;;-0.50;99.90;;;;;;4972551;28;20486;-90
2021/03/24 02:23:10;;;;;;;22.20;11.17;;;-0.50;99.90;;;;;;4971517;28;20493;-90
2021/03/24 02:25:42;;;;;;;20.30;11.30;;;-0.50;99.90;;;;;;4971427;28;20925;-89
2021/03/24 02:28:13;;;;;;;18.33;10.80;;;-0.60;99.90;;;;;;4970607;28;20450;-89
2021/03/24 02:30:43;;;;;;;17.67;10.90;;;-0.60;99.90;;;;;;4968370;28;20500;-91
2021/03/24 02:33:13;;;;;;;17.23;11.37;;;-0.60;99.90;;;;;;4967364;28;20454;-88
2021/03/24 02:35:44;;;;;;;18.13;10.23;;;-0.60;99.90;;;;;;4971442;28;20459;-89
2021/03/24 02:38:11;;;;;;;15.33;9.63;;;-0.70;99.90;;;;;;4971382;28;20452;-89
2021/03/24 02:40:40;;;;;;;20.10;10.90;;;-1.40;99.90;;;;;;4963752;28;20456;-89
2021/03/24 02:43:07;;;;;;;18.83;11.10;;;-0.70;99.90;;;;;;4970264;28;20498;-89
2021/03/24 02:45:38;;;;;;;15.00;10.07;;;-0.50;99.90;;;;;;4971299;28;20453;-89
2021/03/24 02:48:08;;;;;;;16.67;11.93;;;-0.80;99.90;;;;;;4971280;28;20450;-89
2021/03/24 02:50:36;;;;;;;13.93;9.50;;;-0.90;99.90;;;;;;4971427;28;20522;-89
2021/03/24 02:53:03;;;;;;;16.73;10.57;;;-0.80;99.90;;;;;;4971153;28;20458;-89
2021/03/24 02:55:30;;;;;;;20.67;11.57;;;-0.80;99.90;;;;;;4971267;28;20446;-88
2021/03/24 02:57:57;;;;;;;17.37;10.47;;;-0.80;99.90;;;;;;4970373;28;20461;-90
2021/03/24 03:00:26;;;;;;;17.63;11.53;;;-0.80;99.90;;;;;;4971307;28;20460;-90
2021/03/24 03:02:56;;;;;;;14.20;10.10;;;-0.90;99.90;;;;;;4971210;28;20536;-90
2021/03/24 03:05:27;;;;;;;19.60;11.60;;;-0.90;99.90;;;;;;4970482;28;20957;-90
2021/03/24 03:07:57;;;;;;;20.70;11.47;;;-0.80;99.90;;;;;;4964888;28;20459;-89
2021/03/24 03:10:28;;;;;;;23.40;10.70;;;-0.90;99.90;;;;;;4971025;28;20446;-89
2021/03/24 03:12:59;;;;;;;17.87;11.53;;;-0.90;99.90;;;;;;4967063;28;20746;-89
2021/03/24 03:15:30;;;;;;;19.77;11.50;;;-0.90;99.90;;;;;;4970941;28;20450;-90
2021/03/24 03:18:07;;;;;;;18.00;11.40;;;-0.20;99.90;;;;;;4968021;28;20504;-89
2021/03/24 03:20:35;;;;;;;17.37;10.20;;;-0.90;99.90;;;;;;4970957;28;20486;-89
2021/03/24 03:23:05;;;;;;;22.77;10.60;;;-0.90;99.90;;;;;;4970888;28;20485;-90
2021/03/24 03:25:34;;;;;;;23.33;11.37;;;-1.00;99.90;;;;;;4970805;28;20956;-90
2021/03/24 03:28:06;;;;;;;16.57;10.70;;;-1.00;99.90;;;;;;4966715;28;21026;-89
2021/03/24 03:30:36;;;;;;;19.70;11.40;;;-1.00;99.90;;;;;;4970565;28;20463;-89
2021/03/24 03:33:06;;;;;;;17.67;10.80;;;-1.00;99.90;;;;;;4970712;28;20458;-90
2021/03/24 03:35:36;;;;;;;18.20;11.20;;;-1.00;99.90;;;;;;4969499;28;20471;-90
2021/03/24 03:38:06;;;;;;;22.77;12.23;;;-1.00;99.90;;;;;;4965374;28;20480;-89
2021/03/24 03:40:35;;;;;;;18.83;11.27;;;-1.10;99.90;;;;;;4970652;28;20811;-89
2021/03/24 03:43:05;;;;;;;15.90;10.70;;;-1.10;99.90;;;;;;4969708;28;20859;-89
2021/03/24 03:45:33;;;;;;;17.43;10.70;;;-1.00;99.90;;;;;;4970564;28;20582;-89
2021/03/24 03:47:59;;;;;;;17.20;10.47;;;-1.00;99.90;;;;;;4967700;28;20454;-89
2021/03/24 03:50:27;;;;;;;16.73;11.57;;;-1.10;99.90;;;;;;4964187;28;20456;-88
2021/03/24 03:53:06;;;;;;;19.27;11.13;;;-1.10;99.90;;;;;;4970759;28;20453;-89
2021/03/24 03:55:42;;;;;;;19.87;12.47;;;-1.10;99.90;;;;;;4962914;28;20858;-88
2021/03/24 03:58:18;;;;;;;17.87;11.70;;;-1.10;99.90;;;;;;4969408;28;20453;-88
2021/03/24 04:00:53;;;;;;;20.00;12.10;;;-1.10;99.90;;;;;;4967911;28;20449;-89
2021/03/24 04:03:26;;;;;;;20.40;11.47;;;-1.10;99.90;;;;;;4970378;28;20532;-90
2021/03/24 04:05:57;;;;;;;21.83;12.90;;;-1.30;99.90;;;;;;4966375;28;20450;-89
2021/03/24 04:08:28;;;;;;;23.60;12.33;;;-1.20;99.90;;;;;;4970199;28;20959;-89
2021/03/24 04:10:56;;;;;;;17.90;11.80;;;-1.20;99.90;;;;;;4970177;28;20464;-91
2021/03/24 04:13:26;;;;;;;18.33;11.10;;;-1.20;99.90;;;;;;4963912;28;20904;-89
2021/03/24 04:15:54;;;;;;;23.77;13.20;;;-1.20;99.90;;;;;;4967855;28;20483;-89
2021/03/24 04:18:25;;;;;;;23.53;12.70;;;-1.20;99.90;;;;;;4968699;28;20445;-89
2021/03/24 04:20:54;;;;;;;20.27;12.70;;;-1.30;99.90;;;;;;4973242;28;20515;-89
2021/03/24 04:23:25;;;;;;;20.60;12.00;;;-1.30;99.90;;;;;;4968550;28;20492;-89
2021/03/24 04:25:58;;;;;;;20.40;12.50;;;-1.30;99.90;;;;;;4973408;28;20463;-89
2021/03/24 04:28:28;;;;;;;17.67;11.97;;;-1.30;99.90;;;;;;4969588;28;20454;-89
2021/03/24 04:31:00;;;;;;;19.80;11.93;;;-1.30;99.90;;;;;;4967859;28;20450;-89
2021/03/24 04:33:26;;;;;;;20.27;11.67;;;-1.40;99.90;;;;;;4973239;28;20909;-89
2021/03/24 04:35:56;;;;;;;23.57;12.87;;;-1.30;99.90;;;;;;4970374;28;20447;-90
2021/03/24 04:38:27;;;;;;;21.27;12.17;;;-1.30;99.90;;;;;;4973376;28;20457;-89
2021/03/24 04:41:00;;;;;;;16.37;10.27;;;-1.30;99.90;;;;;;4964308;28;20848;-89
2021/03/24 04:43:30;;;;;;;18.30;11.80;;;-1.40;99.90;;;;;;4972051;28;20587;-89
2021/03/24 04:46:01;;;;;;;21.70;12.50;;;-1.40;99.90;;;;;;4965556;28;20460;-89
2021/03/24 04:48:33;;;;;;;18.07;11.57;;;-1.40;99.90;;;;;;4973044;28;20515;-89
2021/03/24 04:51:06;;;;;;;19.10;11.70;;;-1.30;99.90;;;;;;4972863;28;20956;-90
2021/03/24 04:53:37;;;;;;;20.87;10.77;;;-1.40;99.90;;;;;;4973080;28;20464;-90
2021/03/24 04:56:04;;;;;;;21.97;13.33;;;-1.40;99.90;;;;;;4972853;28;20482;-89
2021/03/24 04:58:33;;;;;;;21.07;12.00;;;-1.40;99.90;;;;;;4971779;28;20471;-88
2021/03/24 05:01:04;;;;;;;19.13;11.30;;;-1.40;99.90;;;;;;4972911;28;20456;-89
2021/03/24 05:03:36;;;;;;;20.33;11.70;;;-1.40;99.90;;;;;;4972756;28;21072;-90
2021/03/24 05:06:07;;;;;;;23.50;11.80;;;-1.40;99.90;;;;;;4969715;28;20818;-89
2021/03/24 05:08:39;;;;;;;21.50;12.40;;;-1.40;99.90;;;;;;4973051;28;20448;-90
2021/03/24 05:11:11;;;;;;;21.37;12.20;;;-1.40;99.90;;;;;;4970285;28;20507;-89
2021/03/24 05:13:43;;;;;;;23.43;13.13;;;-1.40;99.90;;;;;;4968900;28;20455;-89
2021/03/24 05:16:18;;;;;;;21.73;11.70;;;-1.40;99.90;;;;;;4972652;28;20976;-90
2021/03/24 05:18:52;;;;;;;22.80;12.37;;;-1.40;99.90;;;;;;4965824;28;20467;-89
2021/03/24 05:21:27;;;;;;;21.90;13.30;;;-1.40;99.90;;;;;;4967816;28;20472;-89
2021/03/24 05:23:57;;;;;;;18.30;11.90;;;-1.40;99.90;;;;;;4972624;28;20504;-89
2021/03/24 05:26:31;;;;;;;20.23;12.50;;;-1.40;99.90;;;;;;4967340;28;20482;-92
2021/03/24 05:29:00;;;;;;;19.63;12.10;;;-1.40;99.90;;;;;;4966140;28;20461;-89
2021/03/24 05:31:34;;;;;;;20.10;12.30;;;-1.40;99.90;;;;;;4972311;28;20956;-90
2021/03/24 05:34:12;;;;;;;24.00;12.83;;;-1.30;99.90;;;;;;4972359;28;20484;-89
2021/03/24 05:36:43;;;;;;;21.77;14.53;;;-1.30;99.90;;;;;;4969773;28;20450;-90
2021/03/24 05:39:18;;;;;;;26.20;12.77;;;-1.30;99.90;;;;;;4972450;28;20465;-90
2021/03/24 05:41:49;;;;;;;28.83;13.73;;;-0.70;99.90;;;;;;4972068;28;20958;-88
2021/03/24 05:44:44;;;;;;;23.10;14.07;;;-1.30;99.90;;;;;;4968336;28;20520;-89
2021/03/24 05:47:52;;;;;;;25.23;12.53;;;-1.20;99.90;;;;;;4968011;28;20853;-89
2021/03/24 05:50:35;;;;;;;18.23;10.97;;;-1.20;99.90;;;;;;4970071;28;20461;-90
2021/03/24 05:53:18;;;;;;;22.43;12.47;;;-1.20;99.90;;;;;;4972205;28;20457;-88
2021/03/24 05:56:02;;;;;;;23.20;13.73;;;-1.10;99.90;;;;;;4971377;28;20450;-88
2021/03/24 05:58:42;;;;;;;30.73;16.50;;;-0.80;99.90;;;;;;4963672;28;20528;-90
2021/03/24 06:01:14;;;;;;;21.00;14.03;;;-0.10;99.90;;;;;;4963936;28;20442;-90
2021/03/24 06:04:00;;;;;;;21.30;13.67;;;-0.30;99.90;;;;;;4958582;28;20490;-88
2021/03/24 06:06:55;;;;;;;22.83;13.77;;;0.00;99.90;;;;;;4960726;28;20802;-89
2021/03/24 06:09:51;;;;;;;20.43;13.80;;;0.40;99.90;;;;;;4928475;28;20447;-91
2021/03/24 06:13:07;;;;;;;21.90;13.93;;;0.60;99.90;;;;;;4955741;28;20444;-90
2021/03/24 06:16:08;;;;;;;20.70;14.63;;;1.20;99.90;;;;;;4967837;28;20479;-89
2021/03/24 06:18:55;;;;;;;19.60;12.90;;;1.40;99.90;;;;;;4959204;28;20964;-89
2021/03/24 06:21:30;;;;;;;22.53;14.33;;;1.20;99.90;;;;;;4951932;28;20479;-89
2021/03/24 06:24:15;;;;;;;19.87;14.33;;;1.20;99.90;;;;;;4952522;28;20564;-88
2021/03/24 06:27:16;;;;;;;25.97;14.10;;;1.60;99.90;;;;;;4948220;28;20447;-90
2021/03/24 06:30:15;;;;;;;23.60;14.03;;;2.00;99.90;;;;;;4947967;28;20443;-90
2021/03/24 06:33:11;;;;;;;20.50;13.87;;;2.40;99.90;;;;;;4954574;28;20520;-90
2021/03/24 06:35:55;;;;;;;22.13;14.87;;;2.70;99.90;;;;;;4947820;28;20516;-87
2021/03/24 06:38:47;;;;;;;18.80;13.23;;;3.30;99.90;;;;;;4953150;28;20458;-90
2021/03/24 06:41:44;;;;;;;23.10;14.73;;;3.70;99.90;;;;;;4949326;29;20474;-90
2021/03/24 06:44:26;;;;;;;20.30;14.73;;;4.00;99.90;;;;;;4951960;28;20494;-90
2021/03/24 06:46:58;;;;;;;19.53;14.63;;;4.30;99.90;;;;;;4950208;28;20458;-91
2021/03/24 06:49:42;;;;;;;23.03;14.20;;;4.50;99.90;;;;;;4953016;28;20455;-91
2021/03/24 06:52:43;;;;;;;21.20;15.10;;;4.70;99.90;;;;;;4946876;29;20462;-90
2021/03/24 06:55:36;;;;;;;19.00;14.10;;;5.20;99.90;;;;;;4952326;28;20449;-91
2021/03/24 06:58:26;;;;;;;21.70;15.13;;;5.40;99.90;;;;;;4951798;28;20455;-91
2021/03/24 07:01:29;;;;;;;19.70;15.47;;;6.00;99.90;;;;;;4952264;28;20450;-91
2021/03/24 07:04:49;;;;;;;20.67;15.63;;;6.50;99.90;;;;;;4951591;28;20499;-90
2021/03/24 07:07:35;;;;;;;24.00;15.80;;;6.90;99.90;;;;;;4928626;29;20462;-90
2021/03/24 07:10:11;;;;;;;23.80;16.27;;;6.90;99.90;;;;;;4952283;28;20881;-92
2021/03/24 07:13:03;;;;;;;26.20;16.90;;;7.00;99.90;;;;;;4952170;29;20451;-89
2021/03/24 07:15:34;;;;;;;23.23;16.87;;;6.90;99.90;;;;;;4958044;28;20969;-89
2021/03/24 07:18:37;;;;;;;20.90;16.17;;;7.00;99.90;;;;;;4957040;28;20814;-90
2021/03/24 07:21:18;;;;;;;20.63;15.10;;;7.10;99.90;;;;;;4943149;28;20853;-89
2021/03/24 07:24:13;;;;;;;25.30;16.10;;;7.40;99.90;;;;;;4961348;28;20490;-90
2021/03/24 07:26:59;;;;;;;19.03;14.93;;;7.50;99.90;;;;;;4959558;28;20443;-88
2021/03/24 07:29:45;;;;;;;21.10;16.03;;;7.70;99.90;;;;;;4959249;28;20504;-89
2021/03/24 07:32:23;;;;;;;20.70;16.03;;;8.60;99.90;;;;;;4958148;28;20454;-90
2021/03/24 07:35:17;;;;;;;24.00;16.13;;;8.90;99.90;;;;;;4954060;28;20454;-89
2021/03/24 07:38:23;;;;;;;15.93;12.57;;;7.70;99.90;;;;;;4960193;28;20534;-89
2021/03/24 07:41:29;;;;;;;17.47;13.83;;;7.70;99.90;;;;;;4959073;28;20465;-89
2021/03/24 07:44:18;;;;;;;16.60;12.50;;;7.60;99.90;;;;;;4953846;28;21008;-88
2021/03/24 07:47:16;;;;;;;21.00;15.33;;;7.60;99.90;;;;;;4951995;28;20477;-86
2021/03/24 07:50:00;;;;;;;21.63;13.87;;;8.50;99.90;;;;;;4952107;29;20451;-91
2021/03/24 07:53:05;;;;;;;20.50;13.03;;;8.40;99.90;;;;;;4951572;28;20442;-87
2021/03/24 07:55:39;;;;;;;21.10;12.37;;;8.30;99.90;;;;;;4949626;28;20441;-88
2021/03/24 07:58:31;;;;;;;16.50;13.17;;;7.80;99.90;;;;;;4967501;28;20866;-89
2021/03/24 08:01:06;;;;;;;16.77;13.83;;;8.40;99.90;;;;;;4960198;28;20531;-91
2021/03/24 08:03:42;;;;;;;21.73;14.40;;;9.30;99.90;;;;;;4970348;28;21000;-87
2021/03/24 08:06:27;;;;;;;17.00;13.30;;;9.80;99.90;;;;;;4961895;28;20479;-90
2021/03/24 08:09:06;;;;;;;15.33;12.27;;;10.10;99.90;;;;;;4954468;29;20447;-87
2021/03/24 08:11:38;;;;;;;16.93;13.57;;;10.70;99.20;;;;;;4953120;28;20821;-91
2021/03/24 08:14:26;;;;;;;13.67;12.20;;;11.30;97.40;;;;;;4951640;28;20447;-94
2021/03/24 08:17:05;;;;;;;17.17;13.17;;;11.60;96.40;;;;;;4958725;28;20482;-95
2021/03/24 08:20:11;;;;;;;17.80;13.77;;;11.90;95.70;;;;;;4956805;28;20788;-94
2021/03/24 08:22:59;;;;;;;14.53;12.93;;;12.20;95.20;;;;;;4976284;28;20451;-93
2021/03/24 08:25:37;;;;;;;17.00;12.77;;;12.40;94.90;;;;;;4969059;28;21038;-94
2021/03/24 08:28:10;;;;;;;17.80;13.23;;;12.00;94.80;;;;;;4970490;28;20531;-92
2021/03/24 08:30:49;;;;;;;16.37;13.00;;;12.30;94.90;;;;;;4970524;28;20450;-91
2021/03/24 08:33:41;;;;;;;20.57;13.63;;;12.00;95.30;;;;;;4970110;28;20454;-92
2021/03/24 08:36:27;;;;;;;15.17;13.10;;;12.00;95.40;;;;;;4972968;28;20481;-88
2021/03/24 08:39:27;;;;;;;15.97;12.50;;;12.70;94.00;;;;;;4972416;28;20449;-90
2021/03/24 08:42:21;;;;;;;14.27;12.23;;;13.10;93.60;;;;;;4974237;28;20451;-92
2021/03/24 08:44:55;;;;;;;14.23;12.20;;;13.10;92.80;;;;;;4979217;28;20482;-92
2021/03/24 08:47:40;;;;;;;15.93;12.43;;;12.90;92.90;;;;;;4971441;28;20450;-92
2021/03/24 08:50:15;;;;;;;15.53;12.37;;;13.00;92.40;;;;;;4954398;28;20524;-89
2021/03/24 08:52:53;;;;;;;15.17;12.00;;;13.00;92.50;;;;;;4960856;28;20451;-92
2021/03/24 08:55:48;;;;;;;19.67;13.87;;;12.40;93.50;;;;;;4959281;28;20463;-92
2021/03/24 08:58:17;;;;;;;18.63;14.10;;;12.60;93.90;;;;;;4951337;28;20467;-90
2021/03/24 09:01:23;;;;;;;17.20;12.43;;;13.60;92.60;;;;;;4964278;28;20462;-93
2021/03/24 09:04:24;;;;;;;16.90;13.60;;;12.70;93.40;;;;;;4952700;29;20885;-90
2021/03/24 09:06:58;;;;;;;16.27;12.33;;;13.40;92.70;;;;;;4954268;29;20458;-93
2021/03/24 09:09:41;;;;;;;17.60;13.43;;;12.60;93.90;;;;;;4956275;28;20485;-91
2021/03/24 09:12:16;;;;;;;15.80;12.87;;;13.10;93.70;;;;;;4967000;28;20446;-93
2021/03/24 09:14:51;;;;;;;16.50;12.87;;;12.10;94.10;;;;;;4972719;28;20453;-92
2021/03/24 09:17:46;;;;;;;15.63;13.03;;;12.70;94.80;;;;;;4972359;28;20454;-93
2021/03/24 09:20:52;;;;;;;17.80;11.97;;;14.00;92.00;;;;;;4973464;28;20497;-92
2021/03/24 09:24:01;;;;;;;14.20;12.47;;;14.50;91.90;;;;;;4973288;28;20501;-92
2021/03/24 09:27:08;;;;;;;13.27;11.40;;;15.10;90.90;;;;;;4973500;28;20461;-92
2021/03/24 09:29:46;;;;;;;19.17;13.07;;;14.80;91.10;;;;;;4969166;28;20471;-91
2021/03/24 09:32:31;;;;;;;17.20;12.90;;;15.10;90.20;;;;;;4950631;29;20444;-92
2021/03/24 09:35:14;;;;;;;14.40;12.10;;;15.60;87.80;;;;;;4963912;28;20454;-94
2021/03/24 09:37:43;;;;;;;15.00;12.30;;;15.10;90.30;;;;;;4969647;28;20454;-90
2021/03/24 09:40:14;;;;;;;15.80;13.07;;;15.20;88.80;;;;;;4963554;28;20750;-93
2021/03/24 09:42:47;;;;;;;16.10;13.50;;;13.90;89.90;;;;;;4964806;28;20454;-91
2021/03/24 09:45:21;;;;;;;19.87;12.87;;;14.90;90.10;;;;;;4960904;28;20459;-92
2021/03/24 09:47:52;;;;;;;16.90;14.00;;;15.10;88.40;;;;;;4962195;28;20479;-90
2021/03/24 09:50:26;;;;;;;20.03;13.53;;;14.00;90.30;;;;;;4970371;28;20442;-90
2021/03/24 09:52:57;;;;;;;17.57;13.07;;;14.70;89.10;;;;;;4972790;28;20450;-92
2021/03/24 09:55:29;;;;;;;14.77;13.00;;;14.70;91.10;;;;;;4963107;28;20490;-92
2021/03/24 09:58:45;;;;;;;16.40;12.93;;;15.30;90.70;;;;;;4953026;29;20463;-94
2021/03/24 10:01:42;;;;;;;18.27;13.43;;;15.10;90.20;;;;;;4960358;28;20458;-94
2021/03/24 10:04:22;;;;;;;17.03;12.33;;;14.30;90.10;;;;;;4970119;28;20897;-91
2021/03/24 10:07:08;;;;;;;14.93;13.30;;;14.70;90.70;;;;;;4967855;28;20442;-94
2021/03/24 10:09:40;;;;;;;19.03;13.40;;;14.90;88.80;;;;;;4953611;29;20474;-94
2021/03/24 10:12:17;;;;;;;15.50;12.20;;;15.50;90.80;;;;;;4952914;29;20673;-92
2021/03/24 10:14:51;;;;;;;14.17;11.67;;;16.50;83.70;;;;;;4952171;29;20439;-89
2021/03/24 10:17:24;;;;;;;14.80;13.20;;;15.50;85.70;;;;;;4949389;28;21041;-88
2021/03/24 10:19:57;;;;;;;19.30;12.17;;;14.60;88.20;;;;;;4957901;28;20511;-89
2021/03/24 10:22:26;;;;;;;23.70;14.23;;;15.90;90.20;;;;;;4970391;28;20906;-89
2021/03/24 10:25:03;;;;;;;24.73;14.50;;;16.70;87.90;;;;;;4968143;28;20494;-88
2021/03/24 10:27:32;;;;;;;29.13;14.63;;;16.50;94.10;;;;;;4971508;28;20458;-94
2021/03/24 10:30:09;;;;;;;42.53;18.67;;;16.50;84.00;;;;;;4967150;28;20446;-91
2021/03/24 10:32:41;;;;;;;70.33;18.60;;;16.00;85.70;;;;;;4953283;28;20450;-89
2021/03/24 10:35:19;;;;;;;61.03;18.00;;;17.10;86.10;;;;;;4955928;28;20909;-89
2021/03/24 10:37:53;;;;;;;17.13;13.20;;;17.70;81.50;;;;;;4950908;29;20451;-88
2021/03/24 10:40:25;;;;;;;17.13;12.73;;;16.30;95.60;;;;;;4955479;28;20525;-91
2021/03/24 10:43:03;;;;;;;17.10;12.97;;;16.80;92.50;;;;;;4958478;28;20953;-91
2021/03/24 10:45:33;;;;;;;41.23;14.93;;;16.80;83.70;;;;;;4965126;28;20466;-89
2021/03/24 10:48:08;;;;;;;19.23;13.33;;;16.20;82.80;;;;;;4960166;28;20471;-91
2021/03/24 10:50:39;;;;;;;165.33;30.23;;;16.10;85.20;;;;;;4958907;28;20458;-89
2021/03/24 10:53:14;;;;;;;26.40;14.07;;;15.80;85.80;;;;;;4966105;28;20547;-93
2021/03/24 10:55:44;;;;;;;20.10;12.73;;;15.80;84.40;;;;;;4962883;28;20454;-89
2021/03/24 10:58:33;;;;;;;16.80;12.07;;;16.40;86.60;;;;;;4994590;28;20507;-89
2021/03/24 11:01:09;;;;;;;15.40;12.30;;;17.20;85.40;;;;;;4980618;28;20455;-92
2021/03/24 11:03:51;;;;;;;14.30;12.20;;;16.50;81.00;;;;;;4974094;28;20489;-90
2021/03/24 11:06:21;;;;;;;17.90;12.40;;;16.90;81.10;;;;;;4971057;28;20457;-88
2021/03/24 11:09:01;;;;;;;16.30;11.70;;;17.80;79.80;;;;;;4984602;28;20462;-91
2021/03/24 11:11:36;;;;;;;12.87;11.47;;;16.70;81.60;;;;;;4963510;28;20455;-89
2021/03/24 11:14:08;;;;;;;13.33;11.50;;;17.50;79.70;;;;;;4968608;28;20451;-87
2021/03/24 11:16:38;;;;;;;12.17;10.53;;;17.30;78.60;;;;;;4955235;28;20446;-91
2021/03/24 11:19:15;;;;;;;14.00;10.83;;;16.10;81.10;;;;;;4959168;28;20455;-88
2021/03/24 11:21:50;;;;;;;14.07;11.13;;;15.30;83.80;;;;;;4967156;28;20460;-89
2021/03/24 11:24:33;;;;;;;15.70;10.40;;;15.50;85.70;;;;;;4966281;28;20489;-86
2021/03/24 11:27:19;;;;;;;14.87;10.00;;;16.20;83.90;;;;;;4953587;28;20462;-87
2021/03/24 11:30:22;;;;;;;17.00;10.27;;;16.00;81.50;;;;;;4965160;28;20465;-88
2021/03/24 11:33:16;;;;;;;13.10;10.63;;;15.90;82.70;;;;;;4974178;28;20458;-89
2021/03/24 11:35:54;;;;;;;12.40;10.70;;;15.30;84.80;;;;;;4968321;28;20486;-90
2021/03/24 11:38:31;;;;;;;12.80;10.37;;;16.80;81.50;;;;;;4970176;28;20466;-92
2021/03/24 11:41:04;;;;;;;13.03;10.70;;;17.50;78.00;;;;;;4961835;28;20950;-87
2021/03/24 11:43:32;;;;;;;11.63;9.97;;;17.10;80.70;;;;;;4964715;28;20506;-88
2021/03/24 11:46:10;;;;;;;13.10;9.60;;;17.40;80.60;;;;;;4954985;29;20509;-91
2021/03/24 11:49:00;;;;;;;11.60;9.60;;;17.30;78.00;;;;;;4954928;28;20479;-89
2021/03/24 11:51:41;;;;;;;14.17;10.37;;;17.50;79.50;;;;;;4964629;28;20461;-88
2021/03/24 11:54:16;;;;;;;13.43;11.50;;;17.50;80.40;;;;;;4954630;29;20941;-91
2021/03/24 11:57:05;;;;;;;16.20;10.93;;;18.10;82.10;;;;;;4972801;28;20461;-90
2021/03/24 11:59:43;;;;;;;14.93;11.17;;;18.10;78.30;;;;;;4964885;28;20477;-89
2021/03/24 12:02:16;;;;;;;22.30;18.53;;;18.00;79.30;;;;;;4954796;28;20492;-90
2021/03/24 12:05:10;;;;;;;15.10;11.93;;;18.00;79.70;;;;;;4961561;28;20505;-89
2021/03/24 12:07:50;;;;;;;15.47;11.80;;;18.00;78.60;;;;;;4963147;28;21024;-89
2021/03/24 12:10:27;;;;;;;14.67;12.07;;;17.60;79.60;;;;;;4972132;28;20454;-91
2021/03/24 12:13:03;;;;;;;17.47;12.47;;;16.90;77.70;;;;;;4973028;28;20472;-90
2021/03/24 12:15:32;;;;;;;14.87;12.73;;;16.90;78.60;;;;;;4974444;28;20453;-92
2021/03/24 12:18:11;;;;;;;14.70;12.00;;;17.20;78.10;;;;;;4973996;28;21090;-93
2021/03/24 12:20:50;;;;;;;15.63;12.40;;;17.30;78.70;;;;;;4974006;28;20489;-90
2021/03/24 12:23:17;;;;;;;17.30;11.90;;;17.20;78.10;;;;;;4973963;28;21054;-91
2021/03/24 12:25:47;;;;;;;14.47;11.67;;;18.10;80.60;;;;;;4983674;28;20450;-92
2021/03/24 12:28:14;;;;;;;15.10;12.30;;;18.40;78.50;;;;;;4972730;28;20502;-89
2021/03/24 12:30:45;;;;;;;14.03;12.33;;;18.90;77.40;;;;;;4985244;28;20446;-93
2021/03/24 12:33:25;;;;;;;16.53;13.07;;;19.00;77.40;;;;;;4984200;28;20460;-92
2021/03/24 12:36:04;;;;;;;25.93;12.90;;;18.90;75.00;;;;;;4954198;28;20451;-94
2021/03/24 12:38:41;;;;;;;16.30;13.87;;;18.40;77.10;;;;;;4980343;28;20488;-93
2021/03/24 12:41:08;;;;;;;16.47;13.23;;;17.60;74.40;;;;;;4973693;28;20872;-94
2021/03/24 12:43:37;;;;;;;16.23;12.50;;;18.10;77.70;;;;;;4982554;28;20566;-90
2021/03/24 12:46:10;;;;;;;19.80;12.90;;;17.80;75.50;;;;;;4973964;28;20561;-92
2021/03/24 12:48:37;;;;;;;17.33;13.47;;;17.30;77.10;;;;;;4982217;28;20465;-93
2021/03/24 12:51:09;;;;;;;15.77;13.50;;;16.70;77.10;;;;;;4981310;28;20948;-92
2021/03/24 12:53:45;;;;;;;19.70;12.70;;;17.30;80.20;;;;;;4979092;28;20455;-96
2021/03/24 12:56:35;;;;;;;13.60;11.80;;;17.90;79.10;;;;;;4976749;28;21013;-94
2021/03/24 12:59:12;;;;;;;17.17;12.03;;;18.60;75.80;;;;;;4975084;28;20543;-91
2021/03/24 13:01:46;;;;;;;14.90;13.13;;;18.70;76.00;;;;;;4976151;28;20450;-91
2021/03/24 13:05:00;;;;;;;17.00;11.97;;;18.90;75.80;;;;;;4976574;28;20490;-90
2021/03/24 13:07:33;;;;;;;15.20;12.30;;;19.20;72.50;;;;;;4961431;28;20528;-92
2021/03/24 13:10:21;;;;;;;15.20;12.77;;;18.60;71.00;;;;;;4983818;28;20456;-90
2021/03/24 13:12:56;;;;;;;15.23;12.30;;;18.50;75.00;;;;;;4966581;28;20568;-89
2021/03/24 13:15:31;;;;;;;13.47;11.87;;;18.10;73.70;;;;;;4966923;28;20482;-90
2021/03/24 13:18:06;;;;;;;15.47;12.77;;;17.90;76.50;;;;;;4981267;28;20454;-93
2021/03/24 13:20:39;;;;;;;14.27;11.00;;;18.80;75.10;;;;;;4966383;28;20493;-90